createdAt,value
2019-03-15T00:01:22.440Z,8.63
2019-03-15T00:03:54.517Z,8.61
2019-03-15T00:06:26.660Z,8.48
2019-03-15T00:08:58.647Z,8.53
2019-03-15T00:11:30.655Z,8.35
2019-03-15T00:14:02.635Z,8.43
2019-03-15T00:16:34.769Z,8.33
2019-03-15T00:19:06.876Z,8.15
2019-03-15T00:21:39.217Z,8.12
2019-03-15T00:24:11.194Z,8.18
2019-03-15T00:26:43.329Z,8.02
2019-03-15T00:29:15.308Z,8.23
2019-03-15T00:31:47.335Z,8.02
2019-03-15T00:34:19.311Z,8.06
2019-03-15T00:36:51.346Z,8.02
2019-03-15T00:39:23.326Z,7.99
2019-03-15T00:41:55.390Z,7.90
2019-03-15T00:44:27.403Z,7.97
2019-03-15T00:46:59.406Z,7.88
2019-03-15T00:49:31.426Z,7.84
2019-03-15T00:52:03.509Z,7.83
2019-03-15T00:54:35.555Z,7.77
2019-03-15T00:57:11.111Z,7.69
2019-03-15T00:59:43.151Z,7.64
2019-03-15T01:02:16.430Z,7.56
2019-03-15T01:04:48.600Z,7.51
2019-03-15T01:07:20.637Z,7.35
2019-03-15T01:09:52.671Z,7.38
2019-03-15T01:12:24.658Z,7.32
2019-03-15T01:14:56.695Z,7.34
2019-03-15T01:17:28.682Z,7.34
2019-03-15T01:20:01.178Z,7.36
2019-03-15T01:22:33.166Z,7.35
2019-03-15T01:25:05.355Z,7.38
2019-03-15T01:27:37.329Z,7.50
2019-03-15T01:30:09.747Z,7.51
2019-03-15T01:32:41.798Z,7.54
2019-03-15T01:35:13.821Z,7.55
2019-03-15T01:37:45.843Z,7.42
2019-03-15T01:40:17.869Z,7.38
2019-03-15T01:42:49.956Z,7.20
2019-03-15T01:45:22.400Z,7.05
2019-03-15T01:47:54.389Z,7.03
2019-03-15T01:50:26.520Z,7.02
2019-03-15T01:52:58.981Z,6.97
2019-03-15T01:55:31.198Z,6.93
2019-03-15T01:58:03.179Z,6.82
2019-03-15T02:00:35.423Z,6.90
2019-03-15T02:03:07.391Z,6.70
2019-03-15T02:05:40.427Z,6.74
2019-03-15T02:08:14.957Z,6.79
2019-03-15T02:10:55.747Z,6.76
2019-03-15T02:13:27.817Z,6.71
2019-03-15T02:16:00.832Z,6.69
2019-03-15T02:18:33.053Z,6.74
2019-03-15T02:21:05.171Z,6.70
2019-03-15T02:23:37.150Z,6.66
2019-03-15T02:26:09.232Z,6.73
2019-03-15T02:28:41.354Z,6.82
2019-03-15T02:31:14.467Z,6.78
2019-03-15T02:33:46.589Z,6.77
2019-03-15T02:36:18.644Z,6.66
2019-03-15T02:38:50.688Z,6.55
2019-03-15T02:41:22.665Z,6.40
2019-03-15T02:43:54.670Z,6.20
2019-03-15T02:46:26.659Z,6.15
2019-03-15T02:48:59.027Z,6.04
2019-03-15T02:52:13.190Z,6.00
2019-03-15T02:54:45.473Z,5.99
2019-03-15T02:57:17.554Z,5.97
2019-03-15T02:59:49.532Z,5.90
2019-03-15T03:02:22.591Z,5.90
2019-03-15T03:04:54.679Z,5.94
2019-03-15T03:07:48.313Z,5.96
2019-03-15T03:10:36.590Z,6.00
2019-03-15T03:13:32.900Z,5.91
2019-03-15T03:16:50.492Z,5.97
2019-03-15T03:19:32.706Z,5.98
2019-03-15T03:22:05.196Z,5.93
2019-03-15T03:24:37.186Z,5.86
2019-03-15T03:27:09.207Z,5.86
2019-03-15T03:29:41.193Z,5.78
2019-03-15T03:33:00.174Z,5.71
2019-03-15T03:35:32.197Z,5.62
2019-03-15T03:38:46.812Z,5.52
2019-03-15T03:41:19.154Z,5.56
2019-03-15T03:43:59.259Z,5.40
2019-03-15T03:47:03.872Z,5.31
2019-03-15T03:49:37.112Z,5.23
2019-03-15T03:52:14.589Z,5.10
2019-03-15T03:54:50.852Z,5.01
2019-03-15T03:57:44.410Z,4.95
2019-03-15T04:00:16.730Z,5.01
2019-03-15T04:02:48.762Z,4.89
2019-03-15T04:05:49.406Z,4.95
2019-03-15T04:08:58.666Z,4.94
2019-03-15T04:12:09.044Z,4.86
2019-03-15T04:14:44.947Z,4.72
2019-03-15T04:17:16.982Z,4.62
2019-03-15T04:21:30.956Z,4.56
2019-03-15T04:24:12.928Z,4.51
2019-03-15T04:34:10.143Z,4.69
2019-03-15T04:37:22.746Z,4.76
2019-03-15T04:39:54.626Z,4.64
2019-03-15T04:42:30.226Z,4.49
2019-03-15T04:45:30.163Z,4.46
2019-03-15T04:48:29.181Z,4.48
2019-03-15T04:51:07.059Z,4.54
2019-03-15T04:53:44.763Z,4.60
2019-03-15T04:56:19.127Z,4.57
2019-03-15T04:58:57.742Z,4.46
2019-03-15T05:01:33.414Z,4.39
2019-03-15T05:04:08.773Z,4.43
2019-03-15T05:06:46.285Z,4.50
2019-03-15T05:09:28.999Z,4.55
2019-03-15T05:12:25.964Z,4.56
2019-03-15T05:14:58.369Z,4.46
2019-03-15T05:17:31.116Z,4.43
2019-03-15T05:20:11.582Z,4.49
2019-03-15T05:22:51.913Z,4.43
2019-03-15T05:25:29.682Z,4.40
2019-03-15T05:28:06.084Z,4.31
2019-03-15T05:30:53.276Z,4.44
2019-03-15T05:33:26.006Z,4.46
2019-03-15T05:36:07.787Z,4.48
2019-03-15T05:38:39.815Z,4.49
2019-03-15T05:41:12.083Z,4.43
2019-03-15T05:43:44.121Z,4.60
2019-03-15T05:46:52.011Z,4.43
2019-03-15T05:49:13.302Z,4.63
2019-03-15T05:51:49.411Z,4.45
2019-03-15T05:54:44.404Z,4.92
2019-03-15T05:57:52.949Z,4.19
2019-03-15T06:00:33.661Z,4.06
2019-03-15T06:03:07.306Z,4.04
2019-03-15T06:05:39.344Z,4.70
2019-03-15T06:08:40.063Z,4.36
2019-03-15T06:11:12.127Z,4.23
2019-03-15T06:13:46.867Z,4.19
2019-03-15T06:16:26.607Z,4.21
2019-03-15T06:19:06.183Z,4.31
2019-03-15T06:21:39.712Z,4.23
2019-03-15T06:24:25.944Z,4.11
2019-03-15T06:27:09.265Z,4.35
2019-03-15T06:29:45.877Z,4.43
2019-03-15T06:32:22.832Z,4.36
2019-03-15T06:35:29.686Z,4.31
2019-03-15T06:38:10.947Z,4.33
2019-03-15T06:40:52.725Z,3.98
2019-03-15T06:43:29.780Z,4.27
2019-03-15T06:46:05.823Z,4.32
2019-03-15T06:48:37.795Z,4.32
2019-03-15T06:51:09.811Z,4.30
2019-03-15T06:53:41.817Z,4.26
2019-03-15T06:56:13.805Z,4.14
2019-03-15T06:58:45.815Z,4.41
2019-03-15T07:01:18.786Z,4.29
2019-03-15T07:03:50.911Z,4.47
2019-03-15T07:06:23.159Z,4.46
2019-03-15T07:08:55.534Z,4.60
2019-03-15T07:11:27.551Z,4.18
2019-03-15T07:13:59.543Z,4.56
2019-03-15T07:16:31.573Z,4.54
2019-03-15T07:19:03.535Z,4.53
2019-03-15T07:21:36.840Z,4.80
2019-03-15T07:24:09.244Z,4.71
2019-03-15T07:26:43.753Z,4.87
2019-03-15T07:29:14.972Z,5.11
2019-03-15T07:31:47.014Z,4.97
2019-03-15T07:34:19.014Z,5.40
2019-03-15T07:37:30.875Z,5.06
2019-03-15T07:40:02.866Z,5.06
2019-03-15T07:42:34.890Z,5.02
2019-03-15T07:45:14.673Z,5.19
2019-03-15T07:47:46.710Z,5.19
2019-03-15T07:50:20.013Z,5.45
2019-03-15T07:52:52.122Z,5.76
2019-03-15T07:55:24.094Z,5.93
2019-03-15T07:57:56.210Z,5.93
2019-03-15T08:00:28.223Z,6.31
2019-03-15T08:03:18.973Z,6.65
2019-03-15T08:05:51.067Z,6.75
2019-03-15T08:08:23.193Z,6.91
2019-03-15T08:10:55.277Z,7.08
2019-03-15T08:13:27.323Z,7.33
2019-03-15T08:15:59.319Z,7.78
2019-03-15T08:18:31.349Z,8.94
2019-03-15T08:21:03.383Z,11.80
2019-03-15T08:23:36.528Z,14.57
2019-03-15T08:26:08.497Z,15.80
2019-03-15T08:28:40.538Z,17.00
2019-03-15T08:31:12.573Z,18.22
2019-03-15T08:33:44.689Z,18.94
2019-03-15T08:36:20.040Z,20.23
2019-03-15T08:38:50.905Z,22.59
2019-03-15T08:41:22.903Z,22.37
2019-03-15T08:43:54.928Z,21.92
2019-03-15T08:46:26.942Z,23.20
2019-03-15T08:48:59.006Z,24.26
2019-03-15T08:51:31.055Z,24.83
2019-03-15T08:54:03.469Z,24.93
2019-03-15T08:56:35.498Z,25.39
2019-03-15T08:59:07.481Z,23.42
2019-03-15T09:01:39.508Z,23.74
2019-03-15T09:04:11.562Z,23.40
2019-03-15T09:06:43.592Z,22.88
2019-03-15T09:09:15.639Z,23.93
2019-03-15T09:11:47.998Z,25.88
2019-03-15T09:14:20.365Z,26.93
2019-03-15T09:16:52.403Z,27.28
2019-03-15T09:19:24.393Z,28.12
2019-03-15T09:21:56.418Z,28.65
2019-03-15T09:24:28.419Z,29.69
2019-03-15T09:27:00.444Z,29.90
2019-03-15T09:29:32.485Z,29.00
2019-03-15T09:32:09.248Z,28.99
2019-03-15T09:34:40.706Z,29.67
2019-03-15T09:37:12.672Z,27.56
2019-03-15T09:39:44.702Z,28.52
2019-03-15T09:42:16.702Z,31.01
2019-03-15T09:44:48.724Z,32.61
2019-03-15T09:47:21.764Z,33.01
2019-03-15T09:49:53.818Z,33.51
2019-03-15T09:52:25.855Z,34.69
2019-03-15T09:54:57.891Z,32.39
2019-03-15T09:57:29.923Z,33.03
2019-03-15T10:00:01.947Z,32.03
2019-03-15T10:02:33.982Z,31.56
2019-03-15T10:05:11.359Z,32.57
2019-03-15T10:07:43.395Z,30.17
2019-03-15T10:10:18.368Z,30.66
2019-03-15T10:12:50.384Z,30.92
2019-03-15T10:15:26.215Z,30.44
2019-03-15T10:17:57.398Z,31.43
2019-03-15T10:20:29.429Z,33.07
2019-03-15T10:23:05.873Z,31.76
2019-03-15T10:25:46.034Z,32.92
2019-03-15T10:28:08.875Z,29.49
2019-03-15T10:30:40.931Z,31.58
2019-03-15T10:33:13.000Z,31.01
2019-03-15T10:35:45.095Z,30.82
2019-03-15T10:38:17.128Z,31.94
2019-03-15T10:40:49.233Z,31.01
2019-03-15T10:43:21.358Z,32.40
2019-03-15T10:45:53.723Z,33.36
2019-03-15T10:48:25.891Z,32.22
2019-03-15T10:50:57.964Z,31.87
2019-03-15T10:53:29.990Z,33.01
2019-03-15T10:56:02.485Z,31.64
2019-03-15T10:58:37.021Z,32.99
2019-03-15T11:01:09.105Z,32.88
2019-03-15T11:03:41.260Z,34.80
2019-03-15T11:06:13.235Z,34.98
2019-03-15T11:08:46.884Z,34.05
2019-03-15T11:11:19.212Z,34.62
2019-03-15T11:13:51.666Z,34.37
2019-03-15T11:16:24.086Z,34.65
2019-03-15T11:18:56.061Z,35.37
2019-03-15T11:21:28.104Z,35.19
2019-03-15T11:24:00.148Z,36.41
2019-03-15T11:26:32.159Z,35.05
2019-03-15T11:29:06.454Z,36.10
2019-03-15T11:31:38.442Z,33.79
2019-03-15T11:34:10.478Z,33.23
2019-03-15T11:36:42.449Z,36.66
2019-03-15T11:39:14.581Z,36.54
2019-03-15T11:41:46.743Z,35.83
2019-03-15T11:44:18.759Z,37.09
2019-03-15T11:46:50.955Z,36.82
2019-03-15T11:49:23.453Z,36.71
2019-03-15T11:51:55.616Z,36.01
2019-03-15T11:54:27.640Z,35.51
2019-03-15T11:56:59.665Z,36.36
2019-03-15T11:59:31.682Z,36.45
2019-03-15T12:02:04.635Z,36.86
2019-03-15T12:04:36.618Z,36.04
2019-03-15T12:07:10.517Z,36.09
2019-03-15T12:09:42.888Z,36.64
2019-03-15T12:12:14.905Z,36.21
2019-03-15T12:14:46.883Z,37.31
2019-03-15T12:17:18.905Z,37.54
2019-03-15T12:19:51.000Z,38.58
2019-03-15T12:22:23.365Z,36.10
2019-03-15T12:24:55.410Z,35.70
2019-03-15T12:27:27.433Z,34.91
2019-03-15T12:29:59.505Z,36.63
2019-03-15T12:32:31.489Z,37.60
2019-03-15T12:35:03.607Z,36.33
2019-03-15T12:37:35.566Z,35.03
2019-03-15T12:40:08.711Z,34.08
2019-03-15T12:42:41.145Z,32.85
2019-03-15T12:45:13.447Z,31.79
2019-03-15T12:47:45.422Z,30.73
2019-03-15T12:50:17.420Z,28.55
2019-03-15T12:52:49.934Z,26.80
2019-03-15T12:55:21.960Z,26.67
2019-03-15T12:57:54.011Z,26.26
2019-03-15T13:00:26.052Z,25.89
2019-03-15T13:02:58.103Z,25.91
2019-03-15T13:05:30.106Z,25.73
2019-03-15T13:08:02.118Z,24.91
2019-03-15T13:10:34.196Z,25.48
2019-03-15T13:13:06.174Z,25.03
2019-03-15T13:15:38.161Z,25.45
2019-03-15T13:18:10.197Z,25.56
2019-03-15T13:20:42.247Z,25.81
2019-03-15T13:23:14.279Z,25.50
2019-03-15T13:25:46.412Z,25.29
2019-03-15T13:28:18.428Z,25.52
2019-03-15T13:30:50.470Z,25.26
2019-03-15T13:33:22.535Z,25.52
2019-03-15T13:35:54.575Z,25.55
2019-03-15T13:38:26.560Z,24.84
2019-03-15T13:40:58.568Z,24.96
2019-03-15T13:43:30.554Z,25.12
2019-03-15T13:46:02.578Z,24.69
2019-03-15T13:48:34.605Z,24.87
2019-03-15T13:51:07.751Z,25.08
2019-03-15T13:53:39.717Z,25.25
2019-03-15T13:56:11.801Z,25.00
2019-03-15T13:58:52.576Z,24.97
2019-03-15T14:01:17.602Z,25.33
2019-03-15T14:03:50.688Z,25.31
2019-03-15T14:06:22.697Z,25.55
2019-03-15T14:08:54.706Z,25.67
2019-03-15T14:11:26.924Z,25.39
2019-03-15T14:13:58.946Z,25.38
2019-03-15T14:16:30.919Z,25.49
2019-03-15T14:19:02.945Z,25.51
2019-03-15T14:21:35.118Z,25.12
2019-03-15T14:24:07.426Z,24.95
2019-03-15T14:26:39.554Z,24.61
2019-03-15T14:29:11.928Z,24.67
2019-03-15T14:31:43.905Z,24.53
2019-03-15T14:34:15.937Z,24.44
2019-03-15T14:36:48.134Z,24.43
2019-03-15T14:39:20.368Z,24.64
2019-03-15T14:41:52.669Z,24.66
2019-03-15T14:44:24.947Z,24.61
2019-03-15T14:46:57.531Z,24.68
2019-03-15T14:49:29.598Z,24.76
2019-03-15T14:52:01.750Z,24.63
2019-03-15T14:54:33.722Z,24.49
2019-03-15T14:57:08.759Z,24.71
2019-03-15T14:59:40.778Z,24.60
2019-03-15T15:02:12.851Z,24.50
2019-03-15T15:04:45.244Z,24.77
2019-03-15T15:07:17.255Z,24.66
2019-03-15T15:09:49.228Z,24.88
2019-03-15T15:12:21.253Z,24.94
2019-03-15T15:14:53.253Z,24.80
2019-03-15T15:17:25.267Z,24.82
2019-03-15T15:19:57.376Z,24.78
2019-03-15T15:22:29.375Z,24.77
2019-03-15T15:25:01.399Z,24.65
2019-03-15T15:27:33.399Z,24.54
2019-03-15T15:30:06.913Z,24.72
2019-03-15T15:32:40.004Z,24.61
2019-03-15T15:35:12.138Z,24.46
2019-03-15T15:37:44.268Z,24.40
2019-03-15T15:40:16.394Z,24.36
2019-03-15T15:42:48.976Z,24.41
2019-03-15T15:45:21.638Z,24.59
2019-03-15T15:47:53.674Z,24.65
2019-03-15T15:50:25.667Z,24.60
2019-03-15T15:52:57.735Z,24.48
2019-03-15T15:55:29.750Z,24.59
2019-03-15T15:58:01.763Z,24.19
2019-03-15T16:00:33.749Z,24.13
2019-03-15T16:03:07.021Z,23.94
2019-03-15T16:05:39.052Z,23.74
2019-03-15T16:08:11.118Z,23.82
2019-03-15T16:10:43.169Z,23.91
2019-03-15T16:13:18.273Z,23.93
2019-03-15T16:15:48.976Z,23.86
2019-03-15T16:18:21.004Z,23.94
2019-03-15T16:20:52.988Z,23.89
2019-03-15T16:23:25.009Z,23.83
2019-03-15T16:25:57.157Z,23.83
2019-03-15T16:28:32.306Z,23.66
2019-03-15T16:31:02.995Z,23.55
2019-03-15T16:33:35.478Z,23.46
2019-03-15T16:36:08.039Z,23.31
2019-03-15T16:38:40.191Z,23.24
2019-03-15T16:41:12.252Z,23.17
2019-03-15T16:43:44.345Z,23.20
2019-03-15T16:46:16.328Z,23.07
2019-03-15T16:48:48.377Z,22.89
2019-03-15T16:51:20.452Z,22.78
2019-03-15T16:53:52.421Z,22.95
2019-03-15T16:56:24.460Z,22.99
2019-03-15T16:58:56.489Z,22.83
2019-03-15T17:01:28.479Z,22.94
2019-03-15T17:04:00.562Z,22.60
2019-03-15T17:06:32.574Z,22.29
2019-03-15T17:09:07.471Z,22.10
2019-03-15T17:11:39.491Z,22.19
2019-03-15T17:14:24.883Z,21.96
2019-03-15T17:16:45.814Z,21.63
2019-03-15T17:19:17.789Z,21.40
2019-03-15T17:21:50.161Z,21.29
2019-03-15T17:24:22.282Z,21.25
2019-03-15T17:26:54.295Z,21.22
2019-03-15T17:29:26.334Z,21.16
2019-03-15T17:31:58.535Z,20.86
2019-03-15T17:34:30.558Z,20.82
2019-03-15T17:37:06.865Z,20.60
2019-03-15T17:39:36.860Z,20.72
2019-03-15T17:42:09.214Z,20.61
2019-03-15T17:44:41.300Z,20.45
2019-03-15T17:47:13.283Z,20.26
2019-03-15T17:49:45.358Z,20.20
2019-03-15T17:52:17.456Z,20.14
2019-03-15T17:54:50.024Z,19.86
2019-03-15T17:57:22.051Z,19.96
2019-03-15T18:00:28.430Z,19.82
2019-03-15T18:03:00.583Z,19.71
2019-03-15T18:05:32.604Z,19.60
2019-03-15T18:08:04.698Z,19.31
2019-03-15T18:10:38.582Z,19.18
2019-03-15T18:13:11.216Z,19.21
2019-03-15T18:15:50.897Z,18.98
2019-03-15T18:18:30.309Z,18.87
2019-03-15T18:21:04.170Z,18.73
2019-03-15T18:23:42.808Z,18.65
2019-03-15T18:26:18.925Z,18.44
2019-03-15T18:28:51.177Z,18.39
2019-03-15T18:31:23.390Z,18.25
2019-03-15T18:33:57.226Z,18.14
2019-03-15T18:36:29.342Z,18.00
2019-03-15T18:39:02.614Z,17.87
2019-03-15T18:41:35.060Z,17.62
2019-03-15T18:44:20.448Z,17.58
2019-03-15T18:46:52.631Z,17.41
2019-03-15T18:49:36.846Z,17.25
2019-03-15T18:52:11.856Z,17.07
2019-03-15T18:54:56.760Z,16.93
2019-03-15T18:57:28.881Z,16.82
2019-03-15T19:00:01.109Z,16.69
2019-03-15T19:02:33.252Z,16.62
2019-03-15T19:05:08.114Z,16.59
2019-03-15T19:07:40.269Z,16.43
2019-03-15T19:10:12.591Z,16.29
2019-03-15T19:12:44.742Z,16.30
2019-03-15T19:15:17.107Z,16.24
2019-03-15T19:17:49.431Z,16.20
2019-03-15T19:20:21.689Z,16.16
2019-03-15T19:22:53.852Z,15.94
2019-03-15T19:25:25.948Z,15.74
2019-03-15T19:27:58.510Z,15.57
2019-03-15T19:30:32.363Z,15.46
2019-03-15T19:33:04.685Z,15.38
2019-03-15T19:35:40.042Z,15.49
2019-03-15T19:38:14.766Z,15.27
2019-03-15T19:40:46.025Z,15.16
2019-03-15T19:43:18.402Z,15.21
2019-03-15T19:45:50.871Z,15.04
2019-03-15T19:48:23.116Z,14.97
2019-03-15T19:50:55.198Z,15.04
2019-03-15T19:53:27.335Z,14.81
2019-03-15T19:55:59.427Z,14.74
2019-03-15T19:58:31.588Z,14.58
2019-03-15T20:01:03.898Z,14.55
2019-03-15T20:03:44.390Z,14.48
2019-03-15T20:06:15.005Z,14.41
2019-03-15T20:08:47.212Z,14.36
2019-03-15T20:11:19.384Z,14.17
2019-03-15T20:13:51.490Z,14.06
2019-03-15T20:16:23.964Z,13.98
2019-03-15T20:18:56.193Z,13.91
2019-03-15T20:21:28.463Z,13.80
2019-03-15T20:24:00.595Z,13.91
2019-03-15T20:26:33.178Z,13.93
2019-03-15T20:29:05.354Z,13.64
2019-03-15T20:31:39.893Z,13.47
2019-03-15T20:34:12.020Z,13.46
2019-03-15T20:36:44.566Z,13.40
2019-03-15T20:39:16.708Z,13.31
2019-03-15T20:41:48.856Z,13.36
2019-03-15T20:44:28.476Z,13.50
2019-03-15T20:46:55.967Z,13.32
2019-03-15T20:49:29.375Z,13.19
2019-03-15T20:52:01.650Z,12.90
2019-03-15T20:54:35.078Z,12.93
2019-03-15T20:57:08.474Z,12.67
2019-03-15T20:59:40.612Z,12.87
2019-03-15T21:02:12.807Z,12.65
2019-03-15T21:04:46.043Z,12.51
2019-03-15T21:07:18.220Z,12.46
2019-03-15T21:09:51.299Z,12.55
2019-03-15T21:12:23.527Z,12.50
2019-03-15T21:14:55.713Z,12.52
2019-03-15T21:17:29.467Z,12.51
2019-03-15T21:20:01.837Z,12.54
2019-03-15T21:22:34.014Z,12.30
2019-03-15T21:25:07.074Z,12.16
2019-03-15T21:27:52.476Z,12.02
2019-03-15T21:30:15.182Z,11.95
2019-03-15T21:32:47.605Z,11.89
2019-03-15T21:35:20.458Z,11.85
2019-03-15T21:37:52.751Z,11.86
2019-03-15T21:40:25.113Z,11.88
2019-03-15T21:42:57.296Z,11.90
2019-03-15T21:45:29.658Z,11.93
2019-03-15T21:48:01.885Z,11.91
2019-03-15T21:50:34.607Z,11.73
2019-03-15T21:53:07.324Z,11.84
2019-03-15T21:55:39.609Z,11.54
2019-03-15T21:58:13.287Z,11.72
2019-03-15T22:00:45.628Z,11.61
2019-03-15T22:03:17.971Z,11.45
2019-03-15T22:05:50.290Z,11.41
2019-03-15T22:08:22.455Z,11.56
2019-03-15T22:10:54.717Z,11.02
2019-03-15T22:13:26.955Z,10.98
2019-03-15T22:15:59.104Z,11.12
2019-03-15T22:18:31.261Z,11.10
2019-03-15T22:21:03.498Z,11.02
2019-03-15T22:23:35.703Z,10.87
2019-03-15T22:26:10.582Z,10.89
2019-03-15T22:28:42.800Z,10.75
2019-03-15T22:31:17.181Z,10.76
2019-03-15T22:33:51.978Z,10.97
2019-03-15T22:36:24.138Z,10.94
2019-03-15T22:38:56.347Z,10.80
2019-03-15T22:41:28.436Z,10.78
2019-03-15T22:44:01.007Z,11.05
2019-03-15T22:46:33.771Z,10.80
2019-03-15T22:49:06.125Z,10.71
2019-03-15T22:51:40.684Z,10.68
2019-03-15T22:54:13.450Z,10.82
2019-03-15T22:56:45.595Z,10.60
2019-03-15T22:59:17.787Z,10.52
2019-03-15T23:02:03.321Z,10.59
2019-03-15T23:04:40.851Z,10.50
2019-03-15T23:07:14.493Z,10.43
2019-03-15T23:09:47.746Z,10.20
2019-03-15T23:12:20.092Z,10.13
2019-03-15T23:14:52.273Z,10.14
2019-03-15T23:17:25.465Z,10.26
2019-03-15T23:19:57.657Z,10.02
2019-03-15T23:22:30.223Z,10.29
2019-03-15T23:25:02.397Z,10.37
2019-03-15T23:27:34.713Z,10.45
2019-03-15T23:30:10.454Z,10.13
2019-03-15T23:32:42.896Z,10.10
2019-03-15T23:35:15.158Z,10.01
2019-03-15T23:37:47.368Z,9.98
2019-03-15T23:40:19.532Z,10.17
2019-03-15T23:42:51.778Z,9.99
2019-03-15T23:45:24.001Z,9.94
2019-03-15T23:47:56.271Z,10.24
2019-03-15T23:50:28.391Z,10.37
2019-03-15T23:53:00.563Z,10.30
2019-03-15T23:55:32.692Z,10.27
2019-03-15T23:58:04.922Z,10.14
